<?xml version="1.0" encoding="UTF-8" standalone="no" ?>
<gpx xmlns="http://www.topografix.com/GPX/1/1" xmlns:xsi="http://www.w3.org/2001/XMLSchema-instance" xsi:schemaLocation="http://www.topografix.com/GPX/1/1 http://www.topografix.com/GPX/1/1/gpx.xsd" version="1.1" creator="VisuGPX - https://www.visugpx.com">
  <metadata>
    <name>Abries SDR</name>
  </metadata>
  <wpt lat="44.7956" lon="6.92592">
    <ele>1571</ele>
  </wpt>
  <wpt lat="44.80157" lon="6.91439">
    <ele>1954</ele>
  </wpt>
  <wpt lat="44.83212" lon="6.90528">
    <ele>2662</ele>
  </wpt>
  <wpt lat="44.82511" lon="6.94159">
    <ele>1781</ele>
  </wpt>
  <wpt lat="44.82948" lon="6.94087">
    <ele>1813</ele>
  </wpt>
  <wpt lat="44.84948" lon="6.94649">
    <ele>2429</ele>
  </wpt>
  <wpt lat="44.85525" lon="6.93276">
    <ele>2686</ele>
  </wpt>
  <wpt lat="44.86127" lon="6.93145">
    <ele>3092</ele>
  </wpt>
  <wpt lat="44.82511" lon="6.94159">
    <ele>1781</ele>
  </wpt>
  <wpt lat="44.82891" lon="6.9414">
    <ele>1830</ele>
  </wpt>
  <wpt lat="44.83196" lon="7.00679">
    <ele>2614</ele>
  </wpt>
  <wpt lat="44.82511" lon="6.94159">
    <ele>1781</ele>
  </wpt>
  <wpt lat="44.82891" lon="6.9414">
    <ele>1830</ele>
  </wpt>
  <wpt lat="44.83547" lon="6.99793">
    <ele>2522</ele>
  </wpt>
  <wpt lat="44.8385" lon="7.00435">
    <ele>2803</ele>
  </wpt>
  <wpt lat="44.82511" lon="6.94159">
    <ele>1781</ele>
  </wpt>
  <wpt lat="44.82891" lon="6.9414">
    <ele>1830</ele>
  </wpt>
  <wpt lat="44.83547" lon="6.99793">
    <ele>2522</ele>
  </wpt>
  <wpt lat="44.84093" lon="6.99998">
    <ele>2874</ele>
  </wpt>
  <wpt lat="44.7956" lon="6.92592">
    <ele>1571</ele>
  </wpt>
  <wpt lat="44.80157" lon="6.91439">
    <ele>1954</ele>
  </wpt>
  <wpt lat="44.82414" lon="6.89209">
    <ele>2344</ele>
  </wpt>
  <wpt lat="44.8303" lon="6.89297">
    <ele>2399</ele>
  </wpt>
  <wpt lat="44.84389" lon="6.90492">
    <ele>2877</ele>
  </wpt>
  <wpt lat="44.81581" lon="6.9467">
    <ele>1710</ele>
  </wpt>
  <wpt lat="44.81329" lon="6.9528">
    <ele>1751</ele>
  </wpt>
  <wpt lat="44.81245" lon="6.95835">
    <ele>1809</ele>
  </wpt>
  <wpt lat="44.81389" lon="6.98449">
    <ele>1950</ele>
  </wpt>
  <wpt lat="44.82375" lon="7.0068">
    <ele>2520</ele>
  </wpt>
  <wpt lat="44.83084" lon="7.01088">
    <ele>2566</ele>
  </wpt>
  <wpt lat="44.82583" lon="7.01892">
    <ele>2661</ele>
  </wpt>
  <wpt lat="44.76756" lon="6.94934">
    <ele>1736</ele>
  </wpt>
  <wpt lat="44.75506" lon="6.93974">
    <ele>1924</ele>
  </wpt>
  <wpt lat="44.75201" lon="6.94055">
    <ele>1962</ele>
  </wpt>
  <wpt lat="44.73659" lon="6.94388">
    <ele>2190</ele>
  </wpt>
  <wpt lat="44.73624" lon="6.96532">
    <ele>2767</ele>
  </wpt>
  <wpt lat="44.7697" lon="6.95353">
    <ele>1725</ele>
  </wpt>
  <wpt lat="44.74148" lon="6.96408">
    <ele>2781</ele>
  </wpt>
  <wpt lat="44.76756" lon="6.94934">
    <ele>1736</ele>
  </wpt>
  <wpt lat="44.75506" lon="6.93974">
    <ele>1924</ele>
  </wpt>
  <wpt lat="44.75201" lon="6.94055">
    <ele>1962</ele>
  </wpt>
  <wpt lat="44.73659" lon="6.94388">
    <ele>2190</ele>
  </wpt>
  <wpt lat="44.72698" lon="6.95272">
    <ele>2313</ele>
  </wpt>
  <wpt lat="44.7211" lon="6.96043">
    <ele>2520</ele>
  </wpt>
  <wpt lat="44.71625" lon="6.96239">
    <ele>2702</ele>
  </wpt>
  <wpt lat="44.71473" lon="6.96795">
    <ele>2765</ele>
  </wpt>
  <wpt lat="44.71082" lon="6.96665">
    <ele>2885</ele>
  </wpt>
  <trk>
    <name><![CDATA[Crete de Gardiole en boucle]]></name>
    <extensions>
      <line xmlns="http://www.topografix.com/GPX/gpx_style/0/2">
        <color>0000FF</color>
        <width>4</width>
          <extensions>
            <sens>1</sens>
          </extensions>
      </line>
    </extensions>
    <trkseg>
      <trkpt lat="44.81818" lon="6.94453">
        <ele>1740.6</ele>
        <time>2018-03-27T06:58:41Z</time>
      </trkpt>
      <trkpt lat="44.81843" lon="6.94427">
        <ele>1740.1</ele>
        <time>2018-03-27T07:01:03Z</time>
      </trkpt>
      <trkpt lat="44.81879" lon="6.94409">
        <ele>1741.9</ele>
        <time>2018-03-27T07:01:39Z</time>
      </trkpt>
      <trkpt lat="44.81911" lon="6.94396">
        <ele>1744.1</ele>
        <time>2018-03-27T07:02:11Z</time>
      </trkpt>
      <trkpt lat="44.81941" lon="6.94387">
        <ele>1747.8</ele>
        <time>2018-03-27T07:02:39Z</time>
      </trkpt>
      <trkpt lat="44.81973" lon="6.94388">
        <ele>1751.7</ele>
        <time>2018-03-27T07:03:08Z</time>
      </trkpt>
      <trkpt lat="44.81997" lon="6.94373">
        <ele>1749.5</ele>
        <time>2018-03-27T07:03:33Z</time>
      </trkpt>
      <trkpt lat="44.8203" lon="6.94394">
        <ele>1754.9</ele>
        <time>2018-03-27T07:04:10Z</time>
      </trkpt>
      <trkpt lat="44.82048" lon="6.94414">
        <ele>1758.9</ele>
        <time>2018-03-27T07:04:33Z</time>
      </trkpt>
      <trkpt lat="44.82084" lon="6.94405">
        <ele>1760</ele>
        <time>2018-03-27T07:05:04Z</time>
      </trkpt>
      <trkpt lat="44.82108" lon="6.94397">
        <ele>1761.4</ele>
        <time>2018-03-27T07:05:27Z</time>
      </trkpt>
      <trkpt lat="44.82125" lon="6.94369">
        <ele>1761.9</ele>
        <time>2018-03-27T07:05:48Z</time>
      </trkpt>
      <trkpt lat="44.82143" lon="6.94345">
        <ele>1763.4</ele>
        <time>2018-03-27T07:06:18Z</time>
      </trkpt>
      <trkpt lat="44.82164" lon="6.94331">
        <ele>1766.5</ele>
        <time>2018-03-27T07:06:36Z</time>
      </trkpt>
      <trkpt lat="44.82197" lon="6.94307">
        <ele>1765.2</ele>
        <time>2018-03-27T07:07:08Z</time>
      </trkpt>
      <trkpt lat="44.8222" lon="6.94301">
        <ele>1767</ele>
        <time>2018-03-27T07:08:21Z</time>
      </trkpt>
      <trkpt lat="44.82217" lon="6.94304">
        <ele>1767.3</ele>
        <time>2018-03-27T07:12:49Z</time>
      </trkpt>
      <trkpt lat="44.82245" lon="6.94281">
        <ele>1766.5</ele>
        <time>2018-03-27T07:13:23Z</time>
      </trkpt>
      <trkpt lat="44.82254" lon="6.94297">
        <ele>1772.9</ele>
        <time>2018-03-27T07:14:13Z</time>
      </trkpt>
      <trkpt lat="44.82274" lon="6.94303">
        <ele>1780.1</ele>
        <time>2018-03-27T07:15:09Z</time>
      </trkpt>
      <trkpt lat="44.82298" lon="6.94311">
        <ele>1787</ele>
        <time>2018-03-27T07:15:59Z</time>
      </trkpt>
      <trkpt lat="44.82294" lon="6.94348">
        <ele>1794.6</ele>
        <time>2018-03-27T07:17:07Z</time>
      </trkpt>
      <trkpt lat="44.82311" lon="6.94374">
        <ele>1803.1</ele>
        <time>2018-03-27T07:18:04Z</time>
      </trkpt>
      <trkpt lat="44.82338" lon="6.94378">
        <ele>1809.6</ele>
        <time>2018-03-27T07:19:02Z</time>
      </trkpt>
      <trkpt lat="44.82336" lon="6.94411">
        <ele>1818.1</ele>
        <time>2018-03-27T07:19:54Z</time>
      </trkpt>
      <trkpt lat="44.82348" lon="6.94435">
        <ele>1828.9</ele>
        <time>2018-03-27T07:21:02Z</time>
      </trkpt>
      <trkpt lat="44.82353" lon="6.94459">
        <ele>1836</ele>
        <time>2018-03-27T07:22:09Z</time>
      </trkpt>
      <trkpt lat="44.82378" lon="6.94451">
        <ele>1841.6</ele>
        <time>2018-03-27T07:22:50Z</time>
      </trkpt>
      <trkpt lat="44.82405" lon="6.94441">
        <ele>1848.2</ele>
        <time>2018-03-27T07:23:48Z</time>
      </trkpt>
      <trkpt lat="44.82426" lon="6.94441">
        <ele>1855.5</ele>
        <time>2018-03-27T07:24:51Z</time>
      </trkpt>
      <trkpt lat="44.82419" lon="6.94471">
        <ele>1860.2</ele>
        <time>2018-03-27T07:25:31Z</time>
      </trkpt>
      <trkpt lat="44.82422" lon="6.94493">
        <ele>1866.5</ele>
        <time>2018-03-27T07:26:24Z</time>
      </trkpt>
      <trkpt lat="44.82438" lon="6.94507">
        <ele>1874.7</ele>
        <time>2018-03-27T07:27:23Z</time>
      </trkpt>
      <trkpt lat="44.82452" lon="6.94522">
        <ele>1881.9</ele>
        <time>2018-03-27T07:28:16Z</time>
      </trkpt>
      <trkpt lat="44.82475" lon="6.94518">
        <ele>1888.7</ele>
        <time>2018-03-27T07:29:01Z</time>
      </trkpt>
      <trkpt lat="44.82499" lon="6.94507">
        <ele>1897.2</ele>
        <time>2018-03-27T07:30:00Z</time>
      </trkpt>
      <trkpt lat="44.8252" lon="6.9449">
        <ele>1898.5</ele>
        <time>2018-03-27T07:30:59Z</time>
      </trkpt>
      <trkpt lat="44.82531" lon="6.94484">
        <ele>1899.3</ele>
        <time>2018-03-27T07:35:22Z</time>
      </trkpt>
      <trkpt lat="44.82546" lon="6.94504">
        <ele>1904.7</ele>
        <time>2018-03-27T07:38:34Z</time>
      </trkpt>
      <trkpt lat="44.8256" lon="6.94524">
        <ele>1910.7</ele>
        <time>2018-03-27T07:39:00Z</time>
      </trkpt>
      <trkpt lat="44.82584" lon="6.94501">
        <ele>1912.3</ele>
        <time>2018-03-27T07:40:15Z</time>
      </trkpt>
      <trkpt lat="44.82608" lon="6.94494">
        <ele>1919.6</ele>
        <time>2018-03-27T07:41:02Z</time>
      </trkpt>
      <trkpt lat="44.82625" lon="6.94524">
        <ele>1928.8</ele>
        <time>2018-03-27T07:42:00Z</time>
      </trkpt>
      <trkpt lat="44.82633" lon="6.9456">
        <ele>1936.5</ele>
        <time>2018-03-27T07:43:10Z</time>
      </trkpt>
      <trkpt lat="44.82636" lon="6.94596">
        <ele>1942.9</ele>
        <time>2018-03-27T07:43:53Z</time>
      </trkpt>
      <trkpt lat="44.8262" lon="6.94631">
        <ele>1939.8</ele>
        <time>2018-03-27T07:46:41Z</time>
      </trkpt>
      <trkpt lat="44.8261" lon="6.94659">
        <ele>1936.8</ele>
        <time>2018-03-27T07:46:50Z</time>
      </trkpt>
      <trkpt lat="44.826" lon="6.94699">
        <ele>1937.1</ele>
        <time>2018-03-27T07:47:16Z</time>
      </trkpt>
      <trkpt lat="44.82569" lon="6.94728">
        <ele>1940.2</ele>
        <time>2018-03-27T07:47:43Z</time>
      </trkpt>
      <trkpt lat="44.82544" lon="6.94713">
        <ele>1941.9</ele>
        <time>2018-03-27T07:48:33Z</time>
      </trkpt>
      <trkpt lat="44.82529" lon="6.94694">
        <ele>1942.5</ele>
        <time>2018-03-27T07:49:33Z</time>
      </trkpt>
      <trkpt lat="44.82511" lon="6.9471">
        <ele>1945.5</ele>
        <time>2018-03-27T07:50:09Z</time>
      </trkpt>
      <trkpt lat="44.8251" lon="6.94751">
        <ele>1958.3</ele>
        <time>2018-03-27T07:51:12Z</time>
      </trkpt>
      <trkpt lat="44.82513" lon="6.94783">
        <ele>1964.9</ele>
        <time>2018-03-27T07:51:58Z</time>
      </trkpt>
      <trkpt lat="44.82501" lon="6.94801">
        <ele>1971.1</ele>
        <time>2018-03-27T07:52:54Z</time>
      </trkpt>
      <trkpt lat="44.82486" lon="6.94825">
        <ele>1976.6</ele>
        <time>2018-03-27T07:53:44Z</time>
      </trkpt>
      <trkpt lat="44.82485" lon="6.9486">
        <ele>1983.9</ele>
        <time>2018-03-27T07:54:37Z</time>
      </trkpt>
      <trkpt lat="44.82493" lon="6.94901">
        <ele>1992.1</ele>
        <time>2018-03-27T07:55:37Z</time>
      </trkpt>
      <trkpt lat="44.82497" lon="6.94939">
        <ele>1999.2</ele>
        <time>2018-03-27T07:56:35Z</time>
      </trkpt>
      <trkpt lat="44.8248" lon="6.9497">
        <ele>2006</ele>
        <time>2018-03-27T07:57:34Z</time>
      </trkpt>
      <trkpt lat="44.82478" lon="6.95005">
        <ele>2011.8</ele>
        <time>2018-03-27T07:58:20Z</time>
      </trkpt>
      <trkpt lat="44.82469" lon="6.95038">
        <ele>2018.5</ele>
        <time>2018-03-27T07:59:16Z</time>
      </trkpt>
      <trkpt lat="44.82447" lon="6.95048">
        <ele>2023.2</ele>
        <time>2018-03-27T08:00:07Z</time>
      </trkpt>
      <trkpt lat="44.82425" lon="6.95067">
        <ele>2030.8</ele>
        <time>2018-03-27T08:01:03Z</time>
      </trkpt>
      <trkpt lat="44.82405" lon="6.95085">
        <ele>2036.9</ele>
        <time>2018-03-27T08:01:58Z</time>
      </trkpt>
      <trkpt lat="44.82407" lon="6.95109">
        <ele>2046.8</ele>
        <time>2018-03-27T08:03:01Z</time>
      </trkpt>
      <trkpt lat="44.82406" lon="6.95135">
        <ele>2057.4</ele>
        <time>2018-03-27T08:04:27Z</time>
      </trkpt>
      <trkpt lat="44.8242" lon="6.95164">
        <ele>2067.8</ele>
        <time>2018-03-27T08:05:35Z</time>
      </trkpt>
      <trkpt lat="44.82405" lon="6.95187">
        <ele>2073.9</ele>
        <time>2018-03-27T08:06:49Z</time>
      </trkpt>
      <trkpt lat="44.82406" lon="6.95207">
        <ele>2080.6</ele>
        <time>2018-03-27T08:08:06Z</time>
      </trkpt>
      <trkpt lat="44.82419" lon="6.95223">
        <ele>2087.2</ele>
        <time>2018-03-27T08:09:05Z</time>
      </trkpt>
      <trkpt lat="44.82421" lon="6.95259">
        <ele>2100</ele>
        <time>2018-03-27T08:10:08Z</time>
      </trkpt>
      <trkpt lat="44.82441" lon="6.95292">
        <ele>2111.5</ele>
        <time>2018-03-27T08:11:12Z</time>
      </trkpt>
      <trkpt lat="44.82469" lon="6.95294">
        <ele>2112</ele>
        <time>2018-03-27T08:12:29Z</time>
      </trkpt>
      <trkpt lat="44.82488" lon="6.95311">
        <ele>2116.9</ele>
        <time>2018-03-27T08:13:26Z</time>
      </trkpt>
      <trkpt lat="44.82509" lon="6.95321">
        <ele>2119.2</ele>
        <time>2018-03-27T08:14:13Z</time>
      </trkpt>
      <trkpt lat="44.82503" lon="6.95343">
        <ele>2125.7</ele>
        <time>2018-03-27T08:15:27Z</time>
      </trkpt>
      <trkpt lat="44.82486" lon="6.95372">
        <ele>2134.5</ele>
        <time>2018-03-27T08:16:20Z</time>
      </trkpt>
      <trkpt lat="44.82475" lon="6.95404">
        <ele>2142.2</ele>
        <time>2018-03-27T08:17:07Z</time>
      </trkpt>
      <trkpt lat="44.82469" lon="6.95441">
        <ele>2150.2</ele>
        <time>2018-03-27T08:18:09Z</time>
      </trkpt>
      <trkpt lat="44.82473" lon="6.95469">
        <ele>2155.5</ele>
        <time>2018-03-27T08:18:58Z</time>
      </trkpt>
      <trkpt lat="44.82474" lon="6.95496">
        <ele>2161.1</ele>
        <time>2018-03-27T08:19:58Z</time>
      </trkpt>
      <trkpt lat="44.82472" lon="6.95533">
        <ele>2167.9</ele>
        <time>2018-03-27T08:21:06Z</time>
      </trkpt>
      <trkpt lat="44.82473" lon="6.95566">
        <ele>2174</ele>
        <time>2018-03-27T08:21:58Z</time>
      </trkpt>
      <trkpt lat="44.82477" lon="6.95603">
        <ele>2181</ele>
        <time>2018-03-27T08:22:45Z</time>
      </trkpt>
      <trkpt lat="44.82472" lon="6.95635">
        <ele>2185.4</ele>
        <time>2018-03-27T08:23:29Z</time>
      </trkpt>
      <trkpt lat="44.82458" lon="6.95656">
        <ele>2187.7</ele>
        <time>2018-03-27T08:24:21Z</time>
      </trkpt>
      <trkpt lat="44.82474" lon="6.95656">
        <ele>2189.2</ele>
        <time>2018-03-27T08:26:06Z</time>
      </trkpt>
      <trkpt lat="44.82476" lon="6.95657">
        <ele>2189.8</ele>
        <time>2018-03-27T08:32:03Z</time>
      </trkpt>
      <trkpt lat="44.82474" lon="6.95659">
        <ele>2189.8</ele>
        <time>2018-03-27T08:35:20Z</time>
      </trkpt>
      <trkpt lat="44.82471" lon="6.95656">
        <ele>2189</ele>
        <time>2018-03-27T08:37:37Z</time>
      </trkpt>
      <trkpt lat="44.82457" lon="6.9568">
        <ele>2191.6</ele>
        <time>2018-03-27T08:38:28Z</time>
      </trkpt>
      <trkpt lat="44.82448" lon="6.95715">
        <ele>2196.4</ele>
        <time>2018-03-27T08:39:16Z</time>
      </trkpt>
      <trkpt lat="44.82433" lon="6.95753">
        <ele>2200.7</ele>
        <time>2018-03-27T08:40:07Z</time>
      </trkpt>
      <trkpt lat="44.82422" lon="6.95783">
        <ele>2204.2</ele>
        <time>2018-03-27T08:40:45Z</time>
      </trkpt>
      <trkpt lat="44.82403" lon="6.95808">
        <ele>2206.7</ele>
        <time>2018-03-27T08:41:39Z</time>
      </trkpt>
      <trkpt lat="44.82405" lon="6.95828">
        <ele>2212.9</ele>
        <time>2018-03-27T08:42:42Z</time>
      </trkpt>
      <trkpt lat="44.82404" lon="6.95858">
        <ele>2222.2</ele>
        <time>2018-03-27T08:43:42Z</time>
      </trkpt>
      <trkpt lat="44.824" lon="6.95886">
        <ele>2229.9</ele>
        <time>2018-03-27T08:44:44Z</time>
      </trkpt>
      <trkpt lat="44.82386" lon="6.95917">
        <ele>2235.3</ele>
        <time>2018-03-27T08:45:41Z</time>
      </trkpt>
      <trkpt lat="44.82377" lon="6.95947">
        <ele>2241.8</ele>
        <time>2018-03-27T08:46:30Z</time>
      </trkpt>
      <trkpt lat="44.82367" lon="6.95982">
        <ele>2249.5</ele>
        <time>2018-03-27T08:47:21Z</time>
      </trkpt>
      <trkpt lat="44.82354" lon="6.96015">
        <ele>2256.7</ele>
        <time>2018-03-27T08:48:29Z</time>
      </trkpt>
      <trkpt lat="44.82336" lon="6.96033">
        <ele>2263.5</ele>
        <time>2018-03-27T08:49:30Z</time>
      </trkpt>
      <trkpt lat="44.82337" lon="6.96068">
        <ele>2271.2</ele>
        <time>2018-03-27T08:50:29Z</time>
      </trkpt>
      <trkpt lat="44.82333" lon="6.96093">
        <ele>2277.1</ele>
        <time>2018-03-27T08:51:38Z</time>
      </trkpt>
      <trkpt lat="44.82324" lon="6.96119">
        <ele>2284</ele>
        <time>2018-03-27T08:52:35Z</time>
      </trkpt>
      <trkpt lat="44.82311" lon="6.96145">
        <ele>2291.9</ele>
        <time>2018-03-27T08:53:35Z</time>
      </trkpt>
      <trkpt lat="44.82297" lon="6.96177">
        <ele>2300.2</ele>
        <time>2018-03-27T08:54:33Z</time>
      </trkpt>
      <trkpt lat="44.82282" lon="6.96209">
        <ele>2307.8</ele>
        <time>2018-03-27T08:55:34Z</time>
      </trkpt>
      <trkpt lat="44.8226" lon="6.96224">
        <ele>2312</ele>
        <time>2018-03-27T08:56:30Z</time>
      </trkpt>
      <trkpt lat="44.82244" lon="6.96247">
        <ele>2318.1</ele>
        <time>2018-03-27T08:57:42Z</time>
      </trkpt>
      <trkpt lat="44.82263" lon="6.96267">
        <ele>2327.3</ele>
        <time>2018-03-27T08:59:06Z</time>
      </trkpt>
      <trkpt lat="44.82277" lon="6.96295">
        <ele>2335.4</ele>
        <time>2018-03-27T09:00:06Z</time>
      </trkpt>
      <trkpt lat="44.82285" lon="6.96326">
        <ele>2342.8</ele>
        <time>2018-03-27T09:00:53Z</time>
      </trkpt>
      <trkpt lat="44.82267" lon="6.96345">
        <ele>2349</ele>
        <time>2018-03-27T09:01:59Z</time>
      </trkpt>
      <trkpt lat="44.82246" lon="6.96357">
        <ele>2353.3</ele>
        <time>2018-03-27T09:02:56Z</time>
      </trkpt>
      <trkpt lat="44.82257" lon="6.96387">
        <ele>2362.7</ele>
        <time>2018-03-27T09:03:43Z</time>
      </trkpt>
      <trkpt lat="44.82263" lon="6.9642">
        <ele>2371.4</ele>
        <time>2018-03-27T09:04:49Z</time>
      </trkpt>
      <trkpt lat="44.82245" lon="6.9644">
        <ele>2378.2</ele>
        <time>2018-03-27T09:05:49Z</time>
      </trkpt>
      <trkpt lat="44.82232" lon="6.96466">
        <ele>2383.6</ele>
        <time>2018-03-27T09:06:37Z</time>
      </trkpt>
      <trkpt lat="44.82224" lon="6.96498">
        <ele>2388.6</ele>
        <time>2018-03-27T09:07:21Z</time>
      </trkpt>
      <trkpt lat="44.82235" lon="6.96538">
        <ele>2391.3</ele>
        <time>2018-03-27T09:07:59Z</time>
      </trkpt>
      <trkpt lat="44.8223" lon="6.96577">
        <ele>2395.7</ele>
        <time>2018-03-27T09:08:41Z</time>
      </trkpt>
      <trkpt lat="44.82214" lon="6.96603">
        <ele>2400.4</ele>
        <time>2018-03-27T09:09:22Z</time>
      </trkpt>
      <trkpt lat="44.82192" lon="6.9662">
        <ele>2404.4</ele>
        <time>2018-03-27T09:10:13Z</time>
      </trkpt>
      <trkpt lat="44.8217" lon="6.96648">
        <ele>2409.6</ele>
        <time>2018-03-27T09:11:05Z</time>
      </trkpt>
      <trkpt lat="44.82158" lon="6.96677">
        <ele>2417.1</ele>
        <time>2018-03-27T09:12:00Z</time>
      </trkpt>
      <trkpt lat="44.82143" lon="6.96707">
        <ele>2425.7</ele>
        <time>2018-03-27T09:13:12Z</time>
      </trkpt>
      <trkpt lat="44.82164" lon="6.96722">
        <ele>2432.6</ele>
        <time>2018-03-27T09:14:17Z</time>
      </trkpt>
      <trkpt lat="44.82186" lon="6.96727">
        <ele>2439.7</ele>
        <time>2018-03-27T09:15:17Z</time>
      </trkpt>
      <trkpt lat="44.82191" lon="6.96746">
        <ele>2448.4</ele>
        <time>2018-03-27T09:17:33Z</time>
      </trkpt>
      <trkpt lat="44.82202" lon="6.96753">
        <ele>2455</ele>
        <time>2018-03-27T09:19:03Z</time>
      </trkpt>
      <trkpt lat="44.82188" lon="6.96787">
        <ele>2461.4</ele>
        <time>2018-03-27T09:20:22Z</time>
      </trkpt>
      <trkpt lat="44.82184" lon="6.96823">
        <ele>2467</ele>
        <time>2018-03-27T09:21:24Z</time>
      </trkpt>
      <trkpt lat="44.82192" lon="6.96856">
        <ele>2471.2</ele>
        <time>2018-03-27T09:22:27Z</time>
      </trkpt>
      <trkpt lat="44.82219" lon="6.96863">
        <ele>2480.1</ele>
        <time>2018-03-27T09:23:26Z</time>
      </trkpt>
      <trkpt lat="44.82243" lon="6.96877">
        <ele>2487.3</ele>
        <time>2018-03-27T09:24:18Z</time>
      </trkpt>
      <trkpt lat="44.82266" lon="6.96873">
        <ele>2493.6</ele>
        <time>2018-03-27T09:25:23Z</time>
      </trkpt>
      <trkpt lat="44.82286" lon="6.96852">
        <ele>2499.5</ele>
        <time>2018-03-27T09:26:25Z</time>
      </trkpt>
      <trkpt lat="44.82307" lon="6.96839">
        <ele>2506.2</ele>
        <time>2018-03-27T09:27:22Z</time>
      </trkpt>
      <trkpt lat="44.82314" lon="6.9684">
        <ele>2509.1</ele>
        <time>2018-03-27T09:32:00Z</time>
      </trkpt>
      <trkpt lat="44.82325" lon="6.96857">
        <ele>2513.9</ele>
        <time>2018-03-27T09:37:07Z</time>
      </trkpt>
      <trkpt lat="44.82339" lon="6.96887">
        <ele>2519.4</ele>
        <time>2018-03-27T09:38:10Z</time>
      </trkpt>
      <trkpt lat="44.82363" lon="6.96891">
        <ele>2529</ele>
        <time>2018-03-27T09:39:07Z</time>
      </trkpt>
      <trkpt lat="44.82384" lon="6.96875">
        <ele>2535.9</ele>
        <time>2018-03-27T09:39:56Z</time>
      </trkpt>
      <trkpt lat="44.8241" lon="6.96855">
        <ele>2542.3</ele>
        <time>2018-03-27T09:40:49Z</time>
      </trkpt>
      <trkpt lat="44.82434" lon="6.96867">
        <ele>2548.6</ele>
        <time>2018-03-27T09:41:31Z</time>
      </trkpt>
      <trkpt lat="44.82449" lon="6.96897">
        <ele>2558.2</ele>
        <time>2018-03-27T09:42:23Z</time>
      </trkpt>
      <trkpt lat="44.82459" lon="6.96923">
        <ele>2565.5</ele>
        <time>2018-03-27T09:43:18Z</time>
      </trkpt>
      <trkpt lat="44.82476" lon="6.9695">
        <ele>2572.7</ele>
        <time>2018-03-27T09:44:11Z</time>
      </trkpt>
      <trkpt lat="44.8249" lon="6.96982">
        <ele>2578.7</ele>
        <time>2018-03-27T09:45:02Z</time>
      </trkpt>
      <trkpt lat="44.82505" lon="6.97013">
        <ele>2580.8</ele>
        <time>2018-03-27T09:45:36Z</time>
      </trkpt>
      <trkpt lat="44.82528" lon="6.97049">
        <ele>2581.6</ele>
        <time>2018-03-27T09:46:22Z</time>
      </trkpt>
      <trkpt lat="44.82551" lon="6.97041">
        <ele>2586.1</ele>
        <time>2018-03-27T09:47:28Z</time>
      </trkpt>
      <trkpt lat="44.8257" lon="6.97047">
        <ele>2587.4</ele>
        <time>2018-03-27T09:48:00Z</time>
      </trkpt>
      <trkpt lat="44.82583" lon="6.97081">
        <ele>2587.1</ele>
        <time>2018-03-27T09:48:20Z</time>
      </trkpt>
      <trkpt lat="44.82591" lon="6.97121">
        <ele>2582.9</ele>
        <time>2018-03-27T09:48:44Z</time>
      </trkpt>
      <trkpt lat="44.82589" lon="6.97154">
        <ele>2580.6</ele>
        <time>2018-03-27T09:49:24Z</time>
      </trkpt>
      <trkpt lat="44.82568" lon="6.97158">
        <ele>2582.8</ele>
        <time>2018-03-27T09:50:10Z</time>
      </trkpt>
      <trkpt lat="44.82536" lon="6.97163">
        <ele>2587.8</ele>
        <time>2018-03-27T09:50:51Z</time>
      </trkpt>
      <trkpt lat="44.8251" lon="6.97151">
        <ele>2596</ele>
        <time>2018-03-27T09:51:40Z</time>
      </trkpt>
      <trkpt lat="44.82492" lon="6.97124">
        <ele>2600</ele>
        <time>2018-03-27T09:52:31Z</time>
      </trkpt>
      <trkpt lat="44.82478" lon="6.97118">
        <ele>2604.6</ele>
        <time>2018-03-27T09:53:37Z</time>
      </trkpt>
      <trkpt lat="44.82478" lon="6.9715">
        <ele>2606.9</ele>
        <time>2018-03-27T09:54:23Z</time>
      </trkpt>
      <trkpt lat="44.82484" lon="6.97183">
        <ele>2605.5</ele>
        <time>2018-03-27T09:55:01Z</time>
      </trkpt>
      <trkpt lat="44.8249" lon="6.97219">
        <ele>2608.2</ele>
        <time>2018-03-27T09:55:39Z</time>
      </trkpt>
      <trkpt lat="44.82491" lon="6.97257">
        <ele>2609.3</ele>
        <time>2018-03-27T09:56:34Z</time>
      </trkpt>
      <trkpt lat="44.82492" lon="6.9728">
        <ele>2608</ele>
        <time>2018-03-27T10:01:15Z</time>
      </trkpt>
      <trkpt lat="44.82489" lon="6.97279">
        <ele>2607.2</ele>
        <time>2018-03-27T10:13:38Z</time>
      </trkpt>
      <trkpt lat="44.82491" lon="6.9726">
        <ele>2609.1</ele>
        <time>2018-03-27T10:16:20Z</time>
      </trkpt>
      <trkpt lat="44.82496" lon="6.97232">
        <ele>2609.8</ele>
        <time>2018-03-27T10:20:47Z</time>
      </trkpt>
      <trkpt lat="44.82508" lon="6.97189">
        <ele>2600.4</ele>
        <time>2018-03-27T10:21:02Z</time>
      </trkpt>
      <trkpt lat="44.82517" lon="6.97176">
        <ele>2595.1</ele>
        <time>2018-03-27T10:21:11Z</time>
      </trkpt>
      <trkpt lat="44.82545" lon="6.97169">
        <ele>2585.5</ele>
        <time>2018-03-27T10:21:21Z</time>
      </trkpt>
      <trkpt lat="44.82568" lon="6.97141">
        <ele>2584</ele>
        <time>2018-03-27T10:21:27Z</time>
      </trkpt>
      <trkpt lat="44.82586" lon="6.97162">
        <ele>2580.7</ele>
        <time>2018-03-27T10:22:05Z</time>
      </trkpt>
      <trkpt lat="44.82591" lon="6.97195">
        <ele>2575.6</ele>
        <time>2018-03-27T10:22:11Z</time>
      </trkpt>
      <trkpt lat="44.82595" lon="6.97228">
        <ele>2570.8</ele>
        <time>2018-03-27T10:22:16Z</time>
      </trkpt>
      <trkpt lat="44.82592" lon="6.9728">
        <ele>2565.8</ele>
        <time>2018-03-27T10:22:24Z</time>
      </trkpt>
      <trkpt lat="44.82592" lon="6.97312">
        <ele>2562.3</ele>
        <time>2018-03-27T10:22:29Z</time>
      </trkpt>
      <trkpt lat="44.82598" lon="6.97345">
        <ele>2560.3</ele>
        <time>2018-03-27T10:22:33Z</time>
      </trkpt>
      <trkpt lat="44.82608" lon="6.97343">
        <ele>2560.6</ele>
        <time>2018-03-27T10:22:54Z</time>
      </trkpt>
      <trkpt lat="44.8263" lon="6.97349">
        <ele>2556.5</ele>
        <time>2018-03-27T10:23:08Z</time>
      </trkpt>
      <trkpt lat="44.82648" lon="6.97379">
        <ele>2550.3</ele>
        <time>2018-03-27T10:23:28Z</time>
      </trkpt>
      <trkpt lat="44.82655" lon="6.97409">
        <ele>2546.5</ele>
        <time>2018-03-27T10:24:51Z</time>
      </trkpt>
      <trkpt lat="44.82678" lon="6.97412">
        <ele>2531.2</ele>
        <time>2018-03-27T10:25:01Z</time>
      </trkpt>
      <trkpt lat="44.82694" lon="6.97411">
        <ele>2520.4</ele>
        <time>2018-03-27T10:25:08Z</time>
      </trkpt>
      <trkpt lat="44.82702" lon="6.97444">
        <ele>2516.3</ele>
        <time>2018-03-27T10:25:20Z</time>
      </trkpt>
      <trkpt lat="44.82705" lon="6.97476">
        <ele>2513.3</ele>
        <time>2018-03-27T10:25:28Z</time>
      </trkpt>
      <trkpt lat="44.82718" lon="6.97452">
        <ele>2504.2</ele>
        <time>2018-03-27T10:25:46Z</time>
      </trkpt>
      <trkpt lat="44.82737" lon="6.97449">
        <ele>2491</ele>
        <time>2018-03-27T10:26:04Z</time>
      </trkpt>
      <trkpt lat="44.8276" lon="6.97456">
        <ele>2477.3</ele>
        <time>2018-03-27T10:26:13Z</time>
      </trkpt>
      <trkpt lat="44.82782" lon="6.97466">
        <ele>2466.3</ele>
        <time>2018-03-27T10:26:34Z</time>
      </trkpt>
      <trkpt lat="44.82812" lon="6.97479">
        <ele>2456.4</ele>
        <time>2018-03-27T10:26:42Z</time>
      </trkpt>
      <trkpt lat="44.82827" lon="6.9747">
        <ele>2450.6</ele>
        <time>2018-03-27T10:26:54Z</time>
      </trkpt>
      <trkpt lat="44.82843" lon="6.97481">
        <ele>2446.2</ele>
        <time>2018-03-27T10:29:55Z</time>
      </trkpt>
      <trkpt lat="44.82864" lon="6.97476">
        <ele>2436.7</ele>
        <time>2018-03-27T10:30:03Z</time>
      </trkpt>
      <trkpt lat="44.82883" lon="6.97468">
        <ele>2424.3</ele>
        <time>2018-03-27T10:30:16Z</time>
      </trkpt>
      <trkpt lat="44.82884" lon="6.97432">
        <ele>2422</ele>
        <time>2018-03-27T10:31:34Z</time>
      </trkpt>
      <trkpt lat="44.82896" lon="6.97458">
        <ele>2416.8</ele>
        <time>2018-03-27T10:31:44Z</time>
      </trkpt>
      <trkpt lat="44.82925" lon="6.97447">
        <ele>2402.4</ele>
        <time>2018-03-27T10:31:56Z</time>
      </trkpt>
      <trkpt lat="44.8294" lon="6.97463">
        <ele>2391.7</ele>
        <time>2018-03-27T10:32:14Z</time>
      </trkpt>
      <trkpt lat="44.82956" lon="6.97454">
        <ele>2385.1</ele>
        <time>2018-03-27T10:32:39Z</time>
      </trkpt>
      <trkpt lat="44.82964" lon="6.97492">
        <ele>2377.8</ele>
        <time>2018-03-27T10:32:49Z</time>
      </trkpt>
      <trkpt lat="44.82978" lon="6.97531">
        <ele>2372.9</ele>
        <time>2018-03-27T10:32:57Z</time>
      </trkpt>
      <trkpt lat="44.82976" lon="6.9749">
        <ele>2373.6</ele>
        <time>2018-03-27T10:34:31Z</time>
      </trkpt>
      <trkpt lat="44.82993" lon="6.97435">
        <ele>2369.4</ele>
        <time>2018-03-27T10:34:46Z</time>
      </trkpt>
      <trkpt lat="44.83" lon="6.97403">
        <ele>2365.4</ele>
        <time>2018-03-27T10:35:12Z</time>
      </trkpt>
      <trkpt lat="44.8302" lon="6.97399">
        <ele>2354.3</ele>
        <time>2018-03-27T10:35:23Z</time>
      </trkpt>
      <trkpt lat="44.83037" lon="6.97418">
        <ele>2347</ele>
        <time>2018-03-27T10:35:37Z</time>
      </trkpt>
      <trkpt lat="44.83059" lon="6.97435">
        <ele>2339.1</ele>
        <time>2018-03-27T10:35:57Z</time>
      </trkpt>
      <trkpt lat="44.83081" lon="6.97443">
        <ele>2330.1</ele>
        <time>2018-03-27T10:36:27Z</time>
      </trkpt>
      <trkpt lat="44.83094" lon="6.97428">
        <ele>2321.8</ele>
        <time>2018-03-27T10:37:00Z</time>
      </trkpt>
      <trkpt lat="44.83111" lon="6.9741">
        <ele>2311.7</ele>
        <time>2018-03-27T10:37:10Z</time>
      </trkpt>
      <trkpt lat="44.83121" lon="6.97385">
        <ele>2305.8</ele>
        <time>2018-03-27T10:37:34Z</time>
      </trkpt>
      <trkpt lat="44.83124" lon="6.97352">
        <ele>2302.5</ele>
        <time>2018-03-27T10:37:59Z</time>
      </trkpt>
      <trkpt lat="44.83121" lon="6.97351">
        <ele>2303.8</ele>
        <time>2018-03-27T10:41:15Z</time>
      </trkpt>
      <trkpt lat="44.83123" lon="6.97321">
        <ele>2302.2</ele>
        <time>2018-03-27T10:43:37Z</time>
      </trkpt>
      <trkpt lat="44.83136" lon="6.97298">
        <ele>2297</ele>
        <time>2018-03-27T10:44:03Z</time>
      </trkpt>
      <trkpt lat="44.83154" lon="6.97279">
        <ele>2288.4</ele>
        <time>2018-03-27T10:44:40Z</time>
      </trkpt>
      <trkpt lat="44.83172" lon="6.97274">
        <ele>2280.8</ele>
        <time>2018-03-27T10:45:29Z</time>
      </trkpt>
      <trkpt lat="44.83194" lon="6.97291">
        <ele>2271.8</ele>
        <time>2018-03-27T10:46:04Z</time>
      </trkpt>
      <trkpt lat="44.83212" lon="6.97312">
        <ele>2264.2</ele>
        <time>2018-03-27T10:46:23Z</time>
      </trkpt>
      <trkpt lat="44.83234" lon="6.97328">
        <ele>2254.6</ele>
        <time>2018-03-27T10:46:57Z</time>
      </trkpt>
      <trkpt lat="44.83266" lon="6.97348">
        <ele>2240.5</ele>
        <time>2018-03-27T10:47:10Z</time>
      </trkpt>
      <trkpt lat="44.83277" lon="6.97321">
        <ele>2233.9</ele>
        <time>2018-03-27T10:47:25Z</time>
      </trkpt>
      <trkpt lat="44.83274" lon="6.97312">
        <ele>2234.9</ele>
        <time>2018-03-27T10:50:50Z</time>
      </trkpt>
      <trkpt lat="44.83276" lon="6.97312">
        <ele>2233.8</ele>
        <time>2018-03-27T10:54:27Z</time>
      </trkpt>
      <trkpt lat="44.83276" lon="6.9732">
        <ele>2234.2</ele>
        <time>2018-03-27T10:58:05Z</time>
      </trkpt>
      <trkpt lat="44.83275" lon="6.97312">
        <ele>2234.3</ele>
        <time>2018-03-27T11:01:19Z</time>
      </trkpt>
      <trkpt lat="44.83281" lon="6.97317">
        <ele>2232.1</ele>
        <time>2018-03-27T11:04:19Z</time>
      </trkpt>
      <trkpt lat="44.83275" lon="6.97316">
        <ele>2234.5</ele>
        <time>2018-03-27T11:07:50Z</time>
      </trkpt>
      <trkpt lat="44.8328" lon="6.97317">
        <ele>2232.7</ele>
        <time>2018-03-27T11:10:52Z</time>
      </trkpt>
      <trkpt lat="44.83278" lon="6.97321">
        <ele>2233.5</ele>
        <time>2018-03-27T11:16:03Z</time>
      </trkpt>
      <trkpt lat="44.83281" lon="6.97321">
        <ele>2232.1</ele>
        <time>2018-03-27T11:19:39Z</time>
      </trkpt>
      <trkpt lat="44.83282" lon="6.97314">
        <ele>2231.7</ele>
        <time>2018-03-27T11:23:45Z</time>
      </trkpt>
      <trkpt lat="44.83278" lon="6.97317">
        <ele>2233.2</ele>
        <time>2018-03-27T11:27:38Z</time>
      </trkpt>
      <trkpt lat="44.83292" lon="6.97299">
        <ele>2226.9</ele>
        <time>2018-03-27T11:29:09Z</time>
      </trkpt>
      <trkpt lat="44.83315" lon="6.97299">
        <ele>2218</ele>
        <time>2018-03-27T11:29:28Z</time>
      </trkpt>
      <trkpt lat="44.8334" lon="6.97305">
        <ele>2208.4</ele>
        <time>2018-03-27T11:30:03Z</time>
      </trkpt>
      <trkpt lat="44.83368" lon="6.97309">
        <ele>2196.7</ele>
        <time>2018-03-27T11:30:27Z</time>
      </trkpt>
      <trkpt lat="44.83388" lon="6.97324">
        <ele>2188</ele>
        <time>2018-03-27T11:30:39Z</time>
      </trkpt>
      <trkpt lat="44.83402" lon="6.97305">
        <ele>2177.7</ele>
        <time>2018-03-27T11:31:16Z</time>
      </trkpt>
      <trkpt lat="44.83416" lon="6.97297">
        <ele>2168.3</ele>
        <time>2018-03-27T11:31:40Z</time>
      </trkpt>
      <trkpt lat="44.83431" lon="6.97315">
        <ele>2160.5</ele>
        <time>2018-03-27T11:32:27Z</time>
      </trkpt>
      <trkpt lat="44.83453" lon="6.97307">
        <ele>2145.8</ele>
        <time>2018-03-27T11:33:02Z</time>
      </trkpt>
      <trkpt lat="44.83471" lon="6.97319">
        <ele>2135.5</ele>
        <time>2018-03-27T11:33:20Z</time>
      </trkpt>
      <trkpt lat="44.83492" lon="6.97316">
        <ele>2124.5</ele>
        <time>2018-03-27T11:33:31Z</time>
      </trkpt>
      <trkpt lat="44.83515" lon="6.97329">
        <ele>2120.2</ele>
        <time>2018-03-27T11:33:42Z</time>
      </trkpt>
      <trkpt lat="44.83515" lon="6.97308">
        <ele>2119</ele>
        <time>2018-03-27T11:35:34Z</time>
      </trkpt>
      <trkpt lat="44.83518" lon="6.9727">
        <ele>2117.6</ele>
        <time>2018-03-27T11:35:45Z</time>
      </trkpt>
      <trkpt lat="44.8351" lon="6.97225">
        <ele>2113.6</ele>
        <time>2018-03-27T11:35:55Z</time>
      </trkpt>
      <trkpt lat="44.83496" lon="6.97198">
        <ele>2110.9</ele>
        <time>2018-03-27T11:36:19Z</time>
      </trkpt>
      <trkpt lat="44.83494" lon="6.97159">
        <ele>2109.7</ele>
        <time>2018-03-27T11:36:47Z</time>
      </trkpt>
      <trkpt lat="44.83511" lon="6.9712">
        <ele>2109.2</ele>
        <time>2018-03-27T11:36:58Z</time>
      </trkpt>
      <trkpt lat="44.83505" lon="6.97076">
        <ele>2105.9</ele>
        <time>2018-03-27T11:37:53Z</time>
      </trkpt>
      <trkpt lat="44.83506" lon="6.97038">
        <ele>2104.6</ele>
        <time>2018-03-27T11:38:03Z</time>
      </trkpt>
      <trkpt lat="44.8351" lon="6.96975">
        <ele>2103.6</ele>
        <time>2018-03-27T11:38:15Z</time>
      </trkpt>
      <trkpt lat="44.83511" lon="6.96933">
        <ele>2101.2</ele>
        <time>2018-03-27T11:38:22Z</time>
      </trkpt>
      <trkpt lat="44.83508" lon="6.96895">
        <ele>2097.9</ele>
        <time>2018-03-27T11:38:27Z</time>
      </trkpt>
      <trkpt lat="44.835" lon="6.96816">
        <ele>2092.4</ele>
        <time>2018-03-27T11:38:40Z</time>
      </trkpt>
      <trkpt lat="44.8349" lon="6.96766">
        <ele>2090</ele>
        <time>2018-03-27T11:38:47Z</time>
      </trkpt>
      <trkpt lat="44.83482" lon="6.96722">
        <ele>2087.5</ele>
        <time>2018-03-27T11:38:55Z</time>
      </trkpt>
      <trkpt lat="44.83471" lon="6.96685">
        <ele>2085.3</ele>
        <time>2018-03-27T11:39:06Z</time>
      </trkpt>
      <trkpt lat="44.83466" lon="6.96638">
        <ele>2085.3</ele>
        <time>2018-03-27T11:39:18Z</time>
      </trkpt>
      <trkpt lat="44.83472" lon="6.96585">
        <ele>2081.1</ele>
        <time>2018-03-27T11:39:30Z</time>
      </trkpt>
      <trkpt lat="44.8347" lon="6.96533">
        <ele>2079</ele>
        <time>2018-03-27T11:39:40Z</time>
      </trkpt>
      <trkpt lat="44.83456" lon="6.96475">
        <ele>2076.8</ele>
        <time>2018-03-27T11:39:52Z</time>
      </trkpt>
      <trkpt lat="44.83436" lon="6.96402">
        <ele>2073.2</ele>
        <time>2018-03-27T11:40:05Z</time>
      </trkpt>
      <trkpt lat="44.83423" lon="6.96349">
        <ele>2071.4</ele>
        <time>2018-03-27T11:40:17Z</time>
      </trkpt>
      <trkpt lat="44.8341" lon="6.9631">
        <ele>2071.8</ele>
        <time>2018-03-27T11:40:28Z</time>
      </trkpt>
      <trkpt lat="44.83408" lon="6.96268">
        <ele>2071.2</ele>
        <time>2018-03-27T11:40:55Z</time>
      </trkpt>
      <trkpt lat="44.83411" lon="6.96227">
        <ele>2071.4</ele>
        <time>2018-03-27T11:41:16Z</time>
      </trkpt>
      <trkpt lat="44.83416" lon="6.96191">
        <ele>2070.4</ele>
        <time>2018-03-27T11:41:27Z</time>
      </trkpt>
      <trkpt lat="44.83421" lon="6.96158">
        <ele>2070.2</ele>
        <time>2018-03-27T11:41:52Z</time>
      </trkpt>
      <trkpt lat="44.83432" lon="6.9612">
        <ele>2067.4</ele>
        <time>2018-03-27T11:42:27Z</time>
      </trkpt>
      <trkpt lat="44.83439" lon="6.96063">
        <ele>2061.3</ele>
        <time>2018-03-27T11:42:57Z</time>
      </trkpt>
      <trkpt lat="44.83441" lon="6.96028">
        <ele>2061.6</ele>
        <time>2018-03-27T11:43:17Z</time>
      </trkpt>
      <trkpt lat="44.83446" lon="6.95995">
        <ele>2059.9</ele>
        <time>2018-03-27T11:43:22Z</time>
      </trkpt>
      <trkpt lat="44.83453" lon="6.9596">
        <ele>2058.5</ele>
        <time>2018-03-27T11:43:28Z</time>
      </trkpt>
      <trkpt lat="44.83458" lon="6.9591">
        <ele>2054.6</ele>
        <time>2018-03-27T11:43:36Z</time>
      </trkpt>
      <trkpt lat="44.83462" lon="6.95875">
        <ele>2050.8</ele>
        <time>2018-03-27T11:43:40Z</time>
      </trkpt>
      <trkpt lat="44.83472" lon="6.95839">
        <ele>2044.6</ele>
        <time>2018-03-27T11:43:49Z</time>
      </trkpt>
      <trkpt lat="44.83481" lon="6.95809">
        <ele>2046.4</ele>
        <time>2018-03-27T11:44:14Z</time>
      </trkpt>
      <trkpt lat="44.83488" lon="6.95755">
        <ele>2045.7</ele>
        <time>2018-03-27T11:44:35Z</time>
      </trkpt>
      <trkpt lat="44.83499" lon="6.95704">
        <ele>2042.5</ele>
        <time>2018-03-27T11:44:46Z</time>
      </trkpt>
      <trkpt lat="44.83501" lon="6.95658">
        <ele>2040.1</ele>
        <time>2018-03-27T11:44:53Z</time>
      </trkpt>
      <trkpt lat="44.83505" lon="6.95621">
        <ele>2035.8</ele>
        <time>2018-03-27T11:45:13Z</time>
      </trkpt>
      <trkpt lat="44.83494" lon="6.95601">
        <ele>2038.8</ele>
        <time>2018-03-27T11:46:40Z</time>
      </trkpt>
      <trkpt lat="44.83491" lon="6.95556">
        <ele>2036</ele>
        <time>2018-03-27T11:46:50Z</time>
      </trkpt>
      <trkpt lat="44.83489" lon="6.95506">
        <ele>2031.3</ele>
        <time>2018-03-27T11:46:58Z</time>
      </trkpt>
      <trkpt lat="44.83492" lon="6.95453">
        <ele>2026.8</ele>
        <time>2018-03-27T11:47:05Z</time>
      </trkpt>
      <trkpt lat="44.83492" lon="6.95422">
        <ele>2025.9</ele>
        <time>2018-03-27T11:47:09Z</time>
      </trkpt>
      <trkpt lat="44.83496" lon="6.95386">
        <ele>2021.9</ele>
        <time>2018-03-27T11:47:14Z</time>
      </trkpt>
      <trkpt lat="44.83496" lon="6.9534">
        <ele>2017.1</ele>
        <time>2018-03-27T11:47:20Z</time>
      </trkpt>
      <trkpt lat="44.83495" lon="6.95291">
        <ele>2012</ele>
        <time>2018-03-27T11:47:25Z</time>
      </trkpt>
      <trkpt lat="44.83493" lon="6.95259">
        <ele>2008.5</ele>
        <time>2018-03-27T11:47:29Z</time>
      </trkpt>
      <trkpt lat="44.83491" lon="6.9522">
        <ele>2003.1</ele>
        <time>2018-03-27T11:47:40Z</time>
      </trkpt>
      <trkpt lat="44.83488" lon="6.9518">
        <ele>1999.6</ele>
        <time>2018-03-27T11:47:46Z</time>
      </trkpt>
      <trkpt lat="44.8348" lon="6.95144">
        <ele>1999.6</ele>
        <time>2018-03-27T11:47:51Z</time>
      </trkpt>
      <trkpt lat="44.83482" lon="6.95118">
        <ele>1996</ele>
        <time>2018-03-27T11:49:43Z</time>
      </trkpt>
      <trkpt lat="44.83492" lon="6.95086">
        <ele>1989.8</ele>
        <time>2018-03-27T11:49:49Z</time>
      </trkpt>
      <trkpt lat="44.83492" lon="6.95043">
        <ele>1988.6</ele>
        <time>2018-03-27T11:49:57Z</time>
      </trkpt>
      <trkpt lat="44.83493" lon="6.95009">
        <ele>1987.7</ele>
        <time>2018-03-27T11:50:02Z</time>
      </trkpt>
      <trkpt lat="44.83499" lon="6.94975">
        <ele>1983.5</ele>
        <time>2018-03-27T11:50:08Z</time>
      </trkpt>
      <trkpt lat="44.83498" lon="6.94939">
        <ele>1983.4</ele>
        <time>2018-03-27T11:50:13Z</time>
      </trkpt>
      <trkpt lat="44.83497" lon="6.94902">
        <ele>1983.6</ele>
        <time>2018-03-27T11:50:17Z</time>
      </trkpt>
      <trkpt lat="44.83499" lon="6.94866">
        <ele>1980.8</ele>
        <time>2018-03-27T11:50:21Z</time>
      </trkpt>
      <trkpt lat="44.83504" lon="6.94814">
        <ele>1975.2</ele>
        <time>2018-03-27T11:50:27Z</time>
      </trkpt>
      <trkpt lat="44.83505" lon="6.94781">
        <ele>1971.6</ele>
        <time>2018-03-27T11:50:32Z</time>
      </trkpt>
      <trkpt lat="44.83502" lon="6.94747">
        <ele>1969.5</ele>
        <time>2018-03-27T11:50:37Z</time>
      </trkpt>
      <trkpt lat="44.83493" lon="6.94678">
        <ele>1966.9</ele>
        <time>2018-03-27T11:50:47Z</time>
      </trkpt>
      <trkpt lat="44.83488" lon="6.94643">
        <ele>1966.2</ele>
        <time>2018-03-27T11:50:53Z</time>
      </trkpt>
      <trkpt lat="44.8349" lon="6.94606">
        <ele>1960.3</ele>
        <time>2018-03-27T11:51:00Z</time>
      </trkpt>
      <trkpt lat="44.83495" lon="6.94563">
        <ele>1951.4</ele>
        <time>2018-03-27T11:51:10Z</time>
      </trkpt>
      <trkpt lat="44.83493" lon="6.94531">
        <ele>1947.9</ele>
        <time>2018-03-27T11:51:23Z</time>
      </trkpt>
      <trkpt lat="44.83483" lon="6.94471">
        <ele>1945.6</ele>
        <time>2018-03-27T11:51:38Z</time>
      </trkpt>
      <trkpt lat="44.8346" lon="6.94407">
        <ele>1939.8</ele>
        <time>2018-03-27T11:51:52Z</time>
      </trkpt>
      <trkpt lat="44.83441" lon="6.94372">
        <ele>1933.7</ele>
        <time>2018-03-27T11:52:09Z</time>
      </trkpt>
      <trkpt lat="44.83426" lon="6.94347">
        <ele>1928.8</ele>
        <time>2018-03-27T11:52:14Z</time>
      </trkpt>
      <trkpt lat="44.83405" lon="6.94331">
        <ele>1927.5</ele>
        <time>2018-03-27T11:52:24Z</time>
      </trkpt>
      <trkpt lat="44.83384" lon="6.94308">
        <ele>1922.4</ele>
        <time>2018-03-27T11:52:43Z</time>
      </trkpt>
      <trkpt lat="44.8336" lon="6.94283">
        <ele>1914.4</ele>
        <time>2018-03-27T11:52:49Z</time>
      </trkpt>
      <trkpt lat="44.83325" lon="6.94269">
        <ele>1909.7</ele>
        <time>2018-03-27T11:52:58Z</time>
      </trkpt>
      <trkpt lat="44.83285" lon="6.94274">
        <ele>1913</ele>
        <time>2018-03-27T11:53:38Z</time>
      </trkpt>
      <trkpt lat="44.83267" lon="6.94252">
        <ele>1904.3</ele>
        <time>2018-03-27T11:54:02Z</time>
      </trkpt>
      <trkpt lat="44.83241" lon="6.94232">
        <ele>1896.8</ele>
        <time>2018-03-27T11:54:08Z</time>
      </trkpt>
      <trkpt lat="44.83222" lon="6.94212">
        <ele>1889.3</ele>
        <time>2018-03-27T11:54:27Z</time>
      </trkpt>
      <trkpt lat="44.83204" lon="6.9421">
        <ele>1888.4</ele>
        <time>2018-03-27T11:55:55Z</time>
      </trkpt>
      <trkpt lat="44.83171" lon="6.94204">
        <ele>1885.1</ele>
        <time>2018-03-27T11:56:03Z</time>
      </trkpt>
      <trkpt lat="44.83143" lon="6.94207">
        <ele>1884.8</ele>
        <time>2018-03-27T11:56:08Z</time>
      </trkpt>
      <trkpt lat="44.83118" lon="6.94198">
        <ele>1879.7</ele>
        <time>2018-03-27T11:56:12Z</time>
      </trkpt>
      <trkpt lat="44.83087" lon="6.94195">
        <ele>1875.7</ele>
        <time>2018-03-27T11:56:20Z</time>
      </trkpt>
      <trkpt lat="44.83063" lon="6.94191">
        <ele>1871.9</ele>
        <time>2018-03-27T11:56:26Z</time>
      </trkpt>
      <trkpt lat="44.8304" lon="6.94182">
        <ele>1866.1</ele>
        <time>2018-03-27T11:56:32Z</time>
      </trkpt>
      <trkpt lat="44.83014" lon="6.94169">
        <ele>1858.2</ele>
        <time>2018-03-27T11:56:39Z</time>
      </trkpt>
      <trkpt lat="44.82992" lon="6.9416">
        <ele>1852.2</ele>
        <time>2018-03-27T11:56:45Z</time>
      </trkpt>
      <trkpt lat="44.82969" lon="6.94158">
        <ele>1848.8</ele>
        <time>2018-03-27T11:56:49Z</time>
      </trkpt>
      <trkpt lat="44.8294" lon="6.94157">
        <ele>1846</ele>
        <time>2018-03-27T11:56:56Z</time>
      </trkpt>
      <trkpt lat="44.82915" lon="6.94151">
        <ele>1840.3</ele>
        <time>2018-03-27T11:57:02Z</time>
      </trkpt>
      <trkpt lat="44.82889" lon="6.94157">
        <ele>1838</ele>
        <time>2018-03-27T11:57:17Z</time>
      </trkpt>
      <trkpt lat="44.82863" lon="6.94168">
        <ele>1838</ele>
        <time>2018-03-27T11:57:22Z</time>
      </trkpt>
      <trkpt lat="44.82837" lon="6.94169">
        <ele>1835.1</ele>
        <time>2018-03-27T11:57:26Z</time>
      </trkpt>
      <trkpt lat="44.8281" lon="6.94164">
        <ele>1830.7</ele>
        <time>2018-03-27T11:57:32Z</time>
      </trkpt>
      <trkpt lat="44.82784" lon="6.94161">
        <ele>1828.3</ele>
        <time>2018-03-27T11:57:36Z</time>
      </trkpt>
      <trkpt lat="44.82765" lon="6.94159">
        <ele>1825.3</ele>
        <time>2018-03-27T11:58:01Z</time>
      </trkpt>
      <trkpt lat="44.82734" lon="6.94174">
        <ele>1822</ele>
        <time>2018-03-27T11:59:07Z</time>
      </trkpt>
      <trkpt lat="44.82687" lon="6.94203">
        <ele>1817.8</ele>
        <time>2018-03-27T11:59:17Z</time>
      </trkpt>
      <trkpt lat="44.82625" lon="6.94196">
        <ele>1813.6</ele>
        <time>2018-03-27T11:59:29Z</time>
      </trkpt>
      <trkpt lat="44.8258" lon="6.94178">
        <ele>1806.3</ele>
        <time>2018-03-27T11:59:42Z</time>
      </trkpt>
      <trkpt lat="44.82557" lon="6.94183">
        <ele>1803.6</ele>
        <time>2018-03-27T12:00:05Z</time>
      </trkpt>
      <trkpt lat="44.82541" lon="6.94176">
        <ele>1798</ele>
        <time>2018-03-27T12:00:39Z</time>
      </trkpt>
      <trkpt lat="44.82542" lon="6.94172">
        <ele>1795.9</ele>
        <time>2018-03-27T12:01:08Z</time>
      </trkpt>
      <trkpt lat="44.82504" lon="6.94149">
        <ele>1785.7</ele>
        <time>2018-03-27T12:03:23Z</time>
      </trkpt>
      <trkpt lat="44.82472" lon="6.94146">
        <ele>1782.7</ele>
        <time>2018-03-27T12:03:29Z</time>
      </trkpt>
      <trkpt lat="44.82449" lon="6.94152">
        <ele>1779.3</ele>
        <time>2018-03-27T12:03:33Z</time>
      </trkpt>
      <trkpt lat="44.82411" lon="6.94186">
        <ele>1781.3</ele>
        <time>2018-03-27T12:03:47Z</time>
      </trkpt>
      <trkpt lat="44.82372" lon="6.94188">
        <ele>1776.4</ele>
        <time>2018-03-27T12:04:01Z</time>
      </trkpt>
      <trkpt lat="44.82346" lon="6.94203">
        <ele>1773.6</ele>
        <time>2018-03-27T12:04:06Z</time>
      </trkpt>
      <trkpt lat="44.82318" lon="6.94231">
        <ele>1771.3</ele>
        <time>2018-03-27T12:04:12Z</time>
      </trkpt>
      <trkpt lat="44.82275" lon="6.94253">
        <ele>1767</ele>
        <time>2018-03-27T12:04:21Z</time>
      </trkpt>
      <trkpt lat="44.82246" lon="6.94284">
        <ele>1767.5</ele>
        <time>2018-03-27T12:04:32Z</time>
      </trkpt>
      <trkpt lat="44.82225" lon="6.94302">
        <ele>1768.1</ele>
        <time>2018-03-27T12:04:38Z</time>
      </trkpt>
      <trkpt lat="44.82201" lon="6.94305">
        <ele>1765</ele>
        <time>2018-03-27T12:04:52Z</time>
      </trkpt>
      <trkpt lat="44.82193" lon="6.94308">
        <ele>1764.8</ele>
        <time>2018-03-27T12:09:34Z</time>
      </trkpt>
      <trkpt lat="44.82165" lon="6.9433">
        <ele>1766.2</ele>
        <time>2018-03-27T12:10:05Z</time>
      </trkpt>
      <trkpt lat="44.82145" lon="6.94344">
        <ele>1763.7</ele>
        <time>2018-03-27T12:10:24Z</time>
      </trkpt>
      <trkpt lat="44.82124" lon="6.94364">
        <ele>1761</ele>
        <time>2018-03-27T12:10:49Z</time>
      </trkpt>
      <trkpt lat="44.82111" lon="6.94392">
        <ele>1760.7</ele>
        <time>2018-03-27T12:11:11Z</time>
      </trkpt>
      <trkpt lat="44.82084" lon="6.94403">
        <ele>1759.6</ele>
        <time>2018-03-27T12:11:38Z</time>
      </trkpt>
      <trkpt lat="44.82057" lon="6.94411">
        <ele>1759</ele>
        <time>2018-03-27T12:12:01Z</time>
      </trkpt>
      <trkpt lat="44.82034" lon="6.94393">
        <ele>1754.9</ele>
        <time>2018-03-27T12:12:26Z</time>
      </trkpt>
      <trkpt lat="44.82014" lon="6.94373">
        <ele>1750.3</ele>
        <time>2018-03-27T12:12:49Z</time>
      </trkpt>
      <trkpt lat="44.81992" lon="6.94381">
        <ele>1750.9</ele>
        <time>2018-03-27T12:13:16Z</time>
      </trkpt>
      <trkpt lat="44.81968" lon="6.94386">
        <ele>1751</ele>
        <time>2018-03-27T12:13:37Z</time>
      </trkpt>
      <trkpt lat="44.81936" lon="6.94391">
        <ele>1747.5</ele>
        <time>2018-03-27T12:14:08Z</time>
      </trkpt>
      <trkpt lat="44.8191" lon="6.944">
        <ele>1745.1</ele>
        <time>2018-03-27T12:14:31Z</time>
      </trkpt>
      <trkpt lat="44.81879" lon="6.9441">
        <ele>1742</ele>
        <time>2018-03-27T12:15:02Z</time>
      </trkpt>
      <trkpt lat="44.81846" lon="6.94427">
        <ele>1740.7</ele>
        <time>2018-03-27T12:15:35Z</time>
      </trkpt>
      <trkpt lat="44.81827" lon="6.94445">
        <ele>1740.4</ele>
        <time>2018-03-27T12:15:59Z</time>
      </trkpt>
      <trkpt lat="44.81827" lon="6.9445">
        <ele>1742</ele>
        <time>2018-03-27T12:17:17Z</time>
      </trkpt>
    </trkseg>
  </trk>
</gpx>